createdAt,value
2018-10-11T00:01:56.647Z,76.62
2018-10-11T00:04:25.681Z,76.52
2018-10-11T00:06:54.675Z,76.05
2018-10-11T00:09:23.442Z,76.29
2018-10-11T00:11:52.274Z,76.42
2018-10-11T00:14:21.185Z,76.43
2018-10-11T00:16:49.928Z,75.09
2018-10-11T00:19:18.541Z,74.38
2018-10-11T00:21:47.304Z,72.92
2018-10-11T00:24:16.127Z,72.76
2018-10-11T00:26:45.180Z,72.56
2018-10-11T00:29:14.031Z,72.13
2018-10-11T00:31:43.058Z,71.65
2018-10-11T00:34:12.011Z,72.20
2018-10-11T00:36:41.048Z,73.78
2018-10-11T00:39:10.292Z,74.25
2018-10-11T00:41:39.054Z,73.33
2018-10-11T00:44:07.724Z,72.75
2018-10-11T00:46:36.462Z,73.79
2018-10-11T00:49:05.139Z,75.87
2018-10-11T00:51:34.152Z,76.81
2018-10-11T00:54:03.074Z,76.53
2018-10-11T00:56:31.762Z,75.40
2018-10-11T00:59:00.640Z,75.56
2018-10-11T01:01:29.758Z,75.43
2018-10-11T01:03:58.670Z,74.77
2018-10-11T01:06:27.418Z,75.10
2018-10-11T01:08:56.244Z,73.58
2018-10-11T01:11:25.103Z,73.90
2018-10-11T01:13:54.020Z,73.50
2018-10-11T01:16:22.863Z,73.95
2018-10-11T01:18:51.807Z,75.57
2018-10-11T01:21:20.741Z,74.65
2018-10-11T01:23:49.795Z,73.96
2018-10-11T01:26:18.366Z,73.47
2018-10-11T01:28:47.315Z,74.58
2018-10-11T01:31:23.070Z,73.67
2018-10-11T01:33:52.568Z,73.37
2018-10-11T01:36:21.659Z,73.74
2018-10-11T01:38:52.025Z,73.48
2018-10-11T01:41:20.798Z,75.29
2018-10-11T01:43:49.573Z,75.39
2018-10-11T01:46:18.454Z,74.19
2018-10-11T01:48:47.620Z,74.65
2018-10-11T01:51:16.369Z,74.00
2018-10-11T01:53:45.389Z,77.61
2018-10-11T01:56:14.546Z,78.08
2018-10-11T01:58:43.496Z,77.53
2018-10-11T02:01:12.827Z,76.47
2018-10-11T02:03:41.807Z,75.52
2018-10-11T02:06:10.783Z,76.46
2018-10-11T02:08:39.725Z,76.33
2018-10-11T02:11:08.829Z,75.54
2018-10-11T02:13:37.479Z,75.48
2018-10-11T02:16:06.220Z,76.48
2018-10-11T02:18:35.121Z,76.56
2018-10-11T02:21:03.927Z,76.45
2018-10-11T02:23:32.712Z,76.94
2018-10-11T02:26:01.633Z,76.90
2018-10-11T02:28:30.283Z,77.01
2018-10-11T02:30:59.256Z,77.54
2018-10-11T02:33:28.482Z,78.71
2018-10-11T02:35:57.735Z,78.83
2018-10-11T02:38:26.553Z,79.39
2018-10-11T02:40:55.391Z,80.19
2018-10-11T02:43:24.303Z,79.37
2018-10-11T02:45:52.942Z,78.75
2018-10-11T02:48:21.883Z,78.37
2018-10-11T02:50:50.850Z,78.66
2018-10-11T02:53:19.629Z,79.76
2018-10-11T02:55:48.804Z,81.04
2018-10-11T02:58:28.568Z,81.62
2018-10-11T03:00:57.510Z,81.51
2018-10-11T03:03:29.006Z,82.08
2018-10-11T03:06:00.552Z,82.46
2018-10-11T03:08:29.866Z,82.27
2018-10-11T03:10:59.007Z,81.90
2018-10-11T03:13:27.624Z,81.89
2018-10-11T03:15:56.360Z,81.12
2018-10-11T03:18:25.515Z,80.52
2018-10-11T03:20:54.240Z,81.71
2018-10-11T03:23:22.884Z,81.99
2018-10-11T03:25:51.791Z,82.65
2018-10-11T03:28:20.731Z,81.91
2018-10-11T03:30:49.685Z,82.27
2018-10-11T03:33:18.578Z,82.30
2018-10-11T03:35:47.411Z,81.37
2018-10-11T03:38:16.205Z,80.50
2018-10-11T03:40:45.000Z,79.95
2018-10-11T03:43:13.728Z,80.68
2018-10-11T03:45:42.314Z,81.39
2018-10-11T03:48:11.389Z,80.62
2018-10-11T03:50:40.312Z,80.12
2018-10-11T03:53:09.119Z,80.24
2018-10-11T03:55:38.295Z,79.12
2018-10-11T03:58:06.981Z,77.66
2018-10-11T04:00:36.322Z,79.63
2018-10-11T04:03:05.182Z,81.01
2018-10-11T04:05:33.964Z,81.77
2018-10-11T04:08:03.601Z,82.44
2018-10-11T04:10:32.306Z,82.51
2018-10-11T04:13:01.384Z,82.91
2018-10-11T04:15:30.170Z,81.61
2018-10-11T04:17:59.039Z,81.19
2018-10-11T04:20:28.103Z,80.47
2018-10-11T04:22:57.199Z,81.90
2018-10-11T04:25:26.700Z,82.37
2018-10-11T04:27:55.503Z,81.99
2018-10-11T04:30:25.106Z,81.21
2018-10-11T04:32:54.231Z,82.11
2018-10-11T04:35:23.155Z,81.51
2018-10-11T04:37:51.846Z,80.09
2018-10-11T04:40:20.675Z,79.96
2018-10-11T04:42:49.592Z,79.52
2018-10-11T04:45:18.250Z,78.51
2018-10-11T04:47:47.098Z,78.91
2018-10-11T04:50:16.164Z,79.54
2018-10-11T04:52:44.980Z,79.05
2018-10-11T04:55:13.933Z,78.31
2018-10-11T04:57:42.978Z,78.59
2018-10-11T05:00:11.728Z,78.43
2018-10-11T05:02:40.255Z,78.04
2018-10-11T05:05:09.595Z,77.55
2018-10-11T05:07:38.611Z,77.60
2018-10-11T05:10:07.429Z,78.07
2018-10-11T05:12:36.229Z,78.96
2018-10-11T05:15:05.145Z,79.01
2018-10-11T05:17:34.699Z,79.14
2018-10-11T05:20:03.533Z,78.23
2018-10-11T05:22:32.249Z,78.57
2018-10-11T05:25:01.184Z,78.90
2018-10-11T05:27:30.046Z,79.30
2018-10-11T05:29:58.975Z,78.79
2018-10-11T05:32:28.261Z,79.00
2018-10-11T05:34:57.075Z,78.55
2018-10-11T05:37:25.715Z,78.03
2018-10-11T05:39:54.623Z,77.52
2018-10-11T05:42:23.466Z,76.77
2018-10-11T05:44:52.785Z,76.73
2018-10-11T05:47:21.919Z,76.49
2018-10-11T05:49:50.993Z,75.54
2018-10-11T05:52:19.719Z,75.11
2018-10-11T05:54:48.810Z,74.68
2018-10-11T05:57:17.771Z,73.51
2018-10-11T05:59:46.723Z,73.10
2018-10-11T06:02:15.692Z,72.45
2018-10-11T06:04:44.963Z,71.48
2018-10-11T06:07:13.961Z,71.57
2018-10-11T06:09:42.740Z,70.94
2018-10-11T06:12:11.532Z,70.80
2018-10-11T06:14:40.487Z,69.35
2018-10-11T06:17:09.730Z,67.89
2018-10-11T06:19:38.692Z,67.38
2018-10-11T06:22:07.939Z,67.13
2018-10-11T06:24:37.045Z,67.50
2018-10-11T06:27:06.147Z,67.19
2018-10-11T06:29:35.539Z,66.89
2018-10-11T06:32:04.234Z,66.57
2018-10-11T06:34:33.387Z,65.70
2018-10-11T06:37:03.284Z,65.25
2018-10-11T06:39:32.062Z,64.62
2018-10-11T06:42:00.686Z,64.67
2018-10-11T06:44:30.011Z,64.65
2018-10-11T06:46:59.083Z,63.32
2018-10-11T06:49:27.895Z,63.25
2018-10-11T06:51:57.092Z,63.19
2018-10-11T06:54:25.950Z,62.58
2018-10-11T06:56:55.059Z,62.08
2018-10-11T06:59:23.883Z,60.27
2018-10-11T07:01:52.978Z,59.52
2018-10-11T07:04:22.058Z,59.09
2018-10-11T07:06:51.141Z,58.93
2018-10-11T07:09:19.852Z,59.13
2018-10-11T07:11:48.538Z,58.95
2018-10-11T07:14:17.248Z,57.63
2018-10-11T07:16:46.011Z,58.11
2018-10-11T07:19:14.629Z,57.54
2018-10-11T07:21:43.532Z,57.42
2018-10-11T07:24:12.198Z,57.81
2018-10-11T07:26:40.875Z,58.04
2018-10-11T07:29:09.858Z,58.06
2018-10-11T07:31:38.721Z,57.76
2018-10-11T07:34:07.639Z,57.99
2018-10-11T07:36:36.326Z,57.54
2018-10-11T07:39:08.157Z,57.63
2018-10-11T07:41:37.157Z,57.77
2018-10-11T07:44:06.442Z,57.48
2018-10-11T07:46:35.554Z,57.20
2018-10-11T07:49:05.952Z,56.97
2018-10-11T07:51:34.823Z,56.61
2018-10-11T07:54:03.865Z,56.33
2018-10-11T07:56:34.061Z,55.72
2018-10-11T07:59:03.005Z,55.31
2018-10-11T08:01:32.219Z,54.46
2018-10-11T08:04:01.507Z,54.14
2018-10-11T08:06:30.280Z,53.94
2018-10-11T08:08:59.129Z,53.97
2018-10-11T08:11:28.575Z,53.71
2018-10-11T08:13:57.253Z,52.45
2018-10-11T08:16:26.362Z,51.58
2018-10-11T08:18:55.971Z,51.47
2018-10-11T08:21:24.955Z,50.80
2018-10-11T08:23:53.883Z,50.89
2018-10-11T08:26:23.138Z,50.60
2018-10-11T08:28:51.840Z,49.10
2018-10-11T08:31:20.775Z,49.17
2018-10-11T08:33:49.816Z,48.75
2018-10-11T08:36:18.450Z,48.05
2018-10-11T08:38:47.263Z,47.85
2018-10-11T08:41:16.376Z,47.86
2018-10-11T08:43:45.312Z,46.71
2018-10-11T08:46:14.802Z,46.43
2018-10-11T08:48:44.109Z,46.33
2018-10-11T08:51:12.859Z,46.25
2018-10-11T08:53:41.813Z,45.44
2018-10-11T08:56:10.883Z,45.06
2018-10-11T08:58:39.866Z,45.23
2018-10-11T09:01:08.859Z,45.46
2018-10-11T09:03:38.081Z,44.90
2018-10-11T09:06:06.727Z,44.58
2018-10-11T09:08:35.321Z,44.41
2018-10-11T09:11:04.266Z,43.96
2018-10-11T09:13:33.098Z,42.73
2018-10-11T09:16:02.010Z,41.90
2018-10-11T09:18:31.318Z,40.70
2018-10-11T09:21:00.070Z,40.51
2018-10-11T09:23:28.931Z,39.58
2018-10-11T09:25:58.208Z,37.97
2018-10-11T09:28:27.165Z,37.15
2018-10-11T09:30:56.157Z,35.40
2018-10-11T09:33:25.573Z,33.97
2018-10-11T09:35:54.232Z,32.04
2018-10-11T09:38:23.004Z,31.39
2018-10-11T09:40:51.784Z,30.55
2018-10-11T09:43:20.725Z,30.22
2018-10-11T09:45:49.767Z,29.60
2018-10-11T09:48:18.938Z,30.24
2018-10-11T09:50:47.779Z,28.95
2018-10-11T09:53:16.855Z,27.87
2018-10-11T09:55:46.040Z,27.23
2018-10-11T09:58:14.970Z,27.60
2018-10-11T10:00:49.354Z,27.46
2018-10-11T10:03:18.519Z,26.87
2018-10-11T10:05:47.229Z,25.63
2018-10-11T10:08:16.124Z,25.66
2018-10-11T10:10:44.858Z,25.93
2018-10-11T10:13:13.741Z,26.03
2018-10-11T10:15:42.801Z,25.53
2018-10-11T10:18:11.854Z,24.47
2018-10-11T10:20:40.887Z,24.74
2018-10-11T10:23:09.654Z,24.57
2018-10-11T10:25:38.486Z,24.32
2018-10-11T10:28:07.363Z,24.34
2018-10-11T10:30:41.571Z,24.46
2018-10-11T10:33:10.758Z,25.00
2018-10-11T10:35:39.495Z,24.59
2018-10-11T10:38:08.356Z,24.54
2018-10-11T10:40:37.331Z,23.67
2018-10-11T10:43:06.036Z,23.79
2018-10-11T10:45:34.740Z,23.80
2018-10-11T10:48:04.709Z,24.76
2018-10-11T10:50:33.591Z,25.55
2018-10-11T10:53:02.370Z,25.64
2018-10-11T10:55:31.610Z,26.37
2018-10-11T10:58:00.543Z,25.93
2018-10-11T11:00:29.483Z,26.06
2018-10-11T11:02:58.502Z,26.57
2018-10-11T11:05:27.307Z,26.28
2018-10-11T11:07:56.050Z,26.53
2018-10-11T11:10:25.475Z,26.63
2018-10-11T11:12:54.653Z,26.50
2018-10-11T11:15:23.813Z,27.30
2018-10-11T11:17:52.488Z,27.38
2018-10-11T11:20:21.489Z,27.53
2018-10-11T11:22:50.427Z,26.87
2018-10-11T11:25:19.554Z,27.69
2018-10-11T11:27:48.336Z,27.89
2018-10-11T11:30:17.484Z,28.46
2018-10-11T11:32:46.218Z,28.87
2018-10-11T11:35:15.054Z,28.78
2018-10-11T11:37:43.728Z,29.36
2018-10-11T11:40:12.595Z,29.05
2018-10-11T11:42:41.503Z,28.89
2018-10-11T11:45:10.347Z,27.72
2018-10-11T11:47:39.362Z,27.73
2018-10-11T11:50:08.471Z,27.75
2018-10-11T11:52:37.591Z,27.45
2018-10-11T11:55:06.663Z,28.13
2018-10-11T11:57:35.603Z,28.80
2018-10-11T12:00:04.827Z,29.07
2018-10-11T12:02:33.549Z,30.73
2018-10-11T12:05:02.263Z,30.41
2018-10-11T12:07:31.940Z,30.46
2018-10-11T12:10:00.677Z,30.37
2018-10-11T12:13:07.286Z,30.44
2018-10-11T12:15:36.676Z,30.75
2018-10-11T12:18:06.486Z,30.62
2018-10-11T12:20:36.748Z,29.97
2018-10-11T12:23:06.730Z,30.12
2018-10-11T12:25:35.732Z,29.62
2018-10-11T12:28:04.726Z,29.56
2018-10-11T12:30:34.020Z,30.16
2018-10-11T12:33:02.791Z,30.49
2018-10-11T12:35:31.926Z,30.99
2018-10-11T12:38:01.313Z,30.83
2018-10-11T12:40:30.363Z,30.17
2018-10-11T12:42:59.359Z,30.42
2018-10-11T12:45:28.241Z,30.03
2018-10-11T12:47:56.978Z,29.50
2018-10-11T12:50:25.779Z,28.18
2018-10-11T12:52:54.741Z,27.56
2018-10-11T12:55:23.908Z,27.79
2018-10-11T12:57:53.159Z,27.76
2018-10-11T13:00:22.052Z,26.77
2018-10-11T13:02:50.987Z,27.14
2018-10-11T13:05:19.659Z,28.82
2018-10-11T13:07:48.760Z,29.68
2018-10-11T13:10:17.891Z,29.99
2018-10-11T13:12:46.767Z,29.07
2018-10-11T13:15:16.067Z,28.46
2018-10-11T13:17:44.920Z,27.86
2018-10-11T13:20:13.804Z,28.25
2018-10-11T13:22:42.702Z,28.34
2018-10-11T13:25:11.710Z,28.91
2018-10-11T13:27:40.730Z,29.22
2018-10-11T13:30:10.143Z,29.52
2018-10-11T13:32:38.801Z,30.13
2018-10-11T13:35:08.323Z,29.80
2018-10-11T13:37:37.000Z,29.80
2018-10-11T13:40:05.685Z,30.16
2018-10-11T13:42:34.436Z,31.54
2018-10-11T13:45:03.495Z,31.69
2018-10-11T13:47:35.294Z,31.62
2018-10-11T13:50:01.358Z,30.93
2018-10-11T13:52:30.160Z,31.21
2018-10-11T13:54:59.243Z,30.06
2018-10-11T13:57:31.125Z,29.95
2018-10-11T13:59:56.891Z,29.56
2018-10-11T14:02:25.553Z,29.38
2018-10-11T14:04:54.267Z,30.08
2018-10-11T14:07:23.193Z,31.49
2018-10-11T14:09:52.127Z,32.36
2018-10-11T14:12:20.981Z,31.93
2018-10-11T14:14:49.669Z,32.37
2018-10-11T14:17:18.607Z,32.06
2018-10-11T14:19:47.506Z,32.35
2018-10-11T14:22:16.578Z,32.09
2018-10-11T14:24:45.594Z,32.98
2018-10-11T14:27:14.500Z,33.93
2018-10-11T14:29:43.257Z,34.62
2018-10-11T14:32:12.061Z,34.73
2018-10-11T14:34:40.716Z,34.82
2018-10-11T14:37:09.846Z,34.68
2018-10-11T14:39:38.747Z,35.59
2018-10-11T14:42:07.879Z,35.61
2018-10-11T14:44:36.885Z,36.05
2018-10-11T14:47:06.016Z,35.63
2018-10-11T14:49:34.901Z,36.93
2018-10-11T14:52:03.937Z,38.52
2018-10-11T14:54:35.197Z,38.49
2018-10-11T14:57:05.471Z,38.13
2018-10-11T14:59:34.303Z,38.80
2018-10-11T15:02:02.961Z,39.43
2018-10-11T15:04:32.063Z,39.44
2018-10-11T15:07:00.882Z,39.50
2018-10-11T15:09:29.944Z,39.19
2018-10-11T15:11:59.181Z,39.43
2018-10-11T15:14:28.243Z,39.61
2018-10-11T15:16:57.910Z,39.68
2018-10-11T15:19:26.907Z,39.93
2018-10-11T15:21:56.040Z,39.62
2018-10-11T15:24:24.807Z,40.45
2018-10-11T15:26:53.863Z,40.27
2018-10-11T15:29:22.709Z,40.67
2018-10-11T15:31:51.479Z,40.85
2018-10-11T15:34:20.294Z,41.49
2018-10-11T15:36:49.347Z,42.80
2018-10-11T15:39:18.287Z,43.47
2018-10-11T15:41:47.319Z,43.38
2018-10-11T15:44:16.167Z,43.78
2018-10-11T15:46:45.038Z,44.24
2018-10-11T15:49:13.928Z,44.95
2018-10-11T15:51:43.076Z,45.25
2018-10-11T15:54:12.085Z,45.11
2018-10-11T15:56:40.826Z,45.96
2018-10-11T15:59:09.628Z,46.72
2018-10-11T16:01:38.357Z,46.53
2018-10-11T16:04:07.199Z,46.86
2018-10-11T16:06:36.078Z,47.74
2018-10-11T16:09:06.545Z,48.34
2018-10-11T16:11:35.416Z,47.94
2018-10-11T16:14:04.281Z,48.59
2018-10-11T16:16:33.681Z,48.50
2018-10-11T16:19:02.600Z,48.98
2018-10-11T16:21:31.751Z,49.24
2018-10-11T16:24:00.592Z,49.93
2018-10-11T16:26:29.598Z,50.00
2018-10-11T16:28:58.515Z,50.51
2018-10-11T16:31:27.304Z,51.04
2018-10-11T16:33:56.309Z,51.09
2018-10-11T16:36:25.455Z,51.03
2018-10-11T16:38:54.040Z,51.59
2018-10-11T16:41:23.412Z,51.37
2018-10-11T16:43:52.354Z,51.74
2018-10-11T16:46:21.170Z,51.36
2018-10-11T16:48:49.911Z,51.57
2018-10-11T16:51:18.724Z,51.63
2018-10-11T16:53:47.800Z,51.23
2018-10-11T16:56:16.598Z,51.43
2018-10-11T16:58:45.374Z,51.11
2018-10-11T17:01:14.102Z,51.18
2018-10-11T17:03:43.094Z,51.55
2018-10-11T17:06:12.067Z,51.85
2018-10-11T17:08:41.296Z,52.10
2018-10-11T17:11:10.344Z,51.73
2018-10-11T17:13:39.115Z,52.38
2018-10-11T17:16:08.036Z,52.71
2018-10-11T17:18:36.777Z,52.58
2018-10-11T17:21:05.866Z,52.67
2018-10-11T17:23:34.752Z,52.76
2018-10-11T17:26:03.462Z,52.87
2018-10-11T17:28:32.150Z,52.21
2018-10-11T17:31:01.174Z,52.77
2018-10-11T17:33:30.097Z,53.01
2018-10-11T17:35:59.167Z,53.14
2018-10-11T17:38:27.870Z,53.41
2018-10-11T17:40:56.842Z,53.39
2018-10-11T17:43:25.909Z,52.82
2018-10-11T17:45:54.711Z,52.88
2018-10-11T17:48:24.019Z,52.82
2018-10-11T17:50:52.892Z,53.45
2018-10-11T17:53:21.748Z,53.45
2018-10-11T17:55:50.978Z,53.43
2018-10-11T17:58:19.906Z,53.78
2018-10-11T18:00:48.803Z,54.12
2018-10-11T18:03:18.354Z,54.23
2018-10-11T18:05:47.386Z,54.26
2018-10-11T18:08:16.896Z,54.49
2018-10-11T18:10:46.060Z,54.62
2018-10-11T18:13:15.148Z,55.32
2018-10-11T18:15:44.194Z,55.02
2018-10-11T18:18:13.722Z,55.20
2018-10-11T18:20:42.583Z,55.74
2018-10-11T18:23:11.421Z,56.03
2018-10-11T18:25:40.099Z,56.42
2018-10-11T18:28:08.831Z,56.28
2018-10-11T18:30:37.492Z,56.14
2018-10-11T18:33:06.318Z,56.33
2018-10-11T18:35:35.400Z,56.50
2018-10-11T18:38:04.146Z,56.81
2018-10-11T18:40:33.039Z,57.20
2018-10-11T18:43:01.903Z,57.48
2018-10-11T18:45:30.819Z,57.71
2018-10-11T18:47:59.994Z,57.13
2018-10-11T18:50:28.835Z,57.61
2018-10-11T18:52:57.827Z,57.47
2018-10-11T18:55:26.498Z,56.85
2018-10-11T18:57:55.237Z,56.53
2018-10-11T19:00:24.006Z,56.86
2018-10-11T19:02:53.132Z,57.12
2018-10-11T19:05:22.176Z,57.40
2018-10-11T19:07:50.990Z,57.70
2018-10-11T19:10:19.840Z,57.39
2018-10-11T19:12:48.579Z,57.87
2018-10-11T19:15:17.459Z,58.21
2018-10-11T19:17:46.378Z,58.07
2018-10-11T19:20:15.279Z,58.01
2018-10-11T19:22:44.367Z,57.92
2018-10-11T19:25:13.102Z,58.28
2018-10-11T19:27:41.903Z,58.25
2018-10-11T19:30:10.633Z,58.44
2018-10-11T19:32:39.551Z,58.98
2018-10-11T19:35:08.651Z,59.00
2018-10-11T19:37:37.450Z,58.07
2018-10-11T19:40:06.249Z,58.02
2018-10-11T19:42:35.111Z,58.11
2018-10-11T19:45:03.958Z,57.99
2018-10-11T19:47:33.025Z,57.51
2018-10-11T19:50:01.940Z,57.54
2018-10-11T19:52:30.813Z,57.47
2018-10-11T19:54:59.572Z,57.59
2018-10-11T19:57:28.327Z,57.16
2018-10-11T19:59:56.961Z,57.13
2018-10-11T20:02:25.665Z,57.74
2018-10-11T20:04:54.635Z,57.16
2018-10-11T20:07:23.763Z,57.72
2018-10-11T20:09:52.799Z,57.45
2018-10-11T20:12:21.597Z,57.08
2018-10-11T20:14:50.942Z,57.10
2018-10-11T20:17:19.878Z,57.05
2018-10-11T20:19:48.684Z,56.65
2018-10-11T20:22:17.776Z,57.04
2018-10-11T20:24:46.627Z,56.91
2018-10-11T20:27:15.421Z,56.77
2018-10-11T20:29:44.154Z,56.37
2018-10-11T20:32:13.089Z,56.55
2018-10-11T20:34:41.918Z,56.37
2018-10-11T20:37:10.945Z,56.94
2018-10-11T20:39:39.548Z,57.33
2018-10-11T20:42:08.636Z,56.76
2018-10-11T20:44:37.532Z,56.36
2018-10-11T20:47:06.535Z,56.62
2018-10-11T20:49:35.167Z,56.57
2018-10-11T20:52:04.030Z,57.96
2018-10-11T20:54:32.985Z,58.18
2018-10-11T20:57:01.582Z,58.05
2018-10-11T20:59:30.283Z,58.76
2018-10-11T21:01:59.355Z,59.43
2018-10-11T21:04:28.144Z,60.08
2018-10-11T21:06:57.240Z,59.67
2018-10-11T21:09:26.265Z,59.43
2018-10-11T21:11:55.203Z,59.73
2018-10-11T21:14:24.274Z,59.61
2018-10-11T21:16:53.069Z,59.55
2018-10-11T21:19:21.819Z,59.52
2018-10-11T21:21:50.526Z,59.49
2018-10-11T21:24:19.659Z,59.80
2018-10-11T21:26:48.386Z,58.89
2018-10-11T21:29:17.068Z,58.86
2018-10-11T21:31:46.016Z,58.52
2018-10-11T21:34:15.116Z,58.34
2018-10-11T21:36:43.867Z,58.41
2018-10-11T21:39:13.551Z,58.80
2018-10-11T21:41:42.607Z,58.53
2018-10-11T21:44:11.515Z,57.66
2018-10-11T21:46:40.505Z,57.70
2018-10-11T21:49:09.532Z,58.08
2018-10-11T21:51:38.525Z,58.20
2018-10-11T21:54:07.258Z,58.35
2018-10-11T21:56:35.983Z,58.77
2018-10-11T21:59:04.939Z,58.81
2018-10-11T22:01:33.786Z,58.88
2018-10-11T22:04:02.586Z,58.41
2018-10-11T22:06:31.463Z,58.78
2018-10-11T22:09:00.203Z,58.90
2018-10-11T22:11:28.924Z,58.66
2018-10-11T22:13:57.866Z,59.18
2018-10-11T22:16:26.776Z,59.20
2018-10-11T22:18:55.564Z,58.95
2018-10-11T22:21:24.266Z,59.06
2018-10-11T22:23:53.543Z,58.51
2018-10-11T22:26:22.232Z,58.82
2018-10-11T22:28:50.878Z,58.86
2018-10-11T22:31:19.855Z,59.58
2018-10-11T22:33:48.806Z,59.11
2018-10-11T22:36:17.427Z,59.29
2018-10-11T22:38:46.306Z,60.16
2018-10-11T22:41:15.494Z,59.20
2018-10-11T22:43:44.669Z,59.10
2018-10-11T22:46:13.959Z,59.05
2018-10-11T22:48:43.328Z,59.36
2018-10-11T22:51:12.618Z,59.28
2018-10-11T22:53:41.780Z,59.97
2018-10-11T22:56:10.550Z,60.04
2018-10-11T22:58:39.655Z,60.37
2018-10-11T23:01:08.595Z,60.51
2018-10-11T23:03:37.582Z,60.80
2018-10-11T23:06:06.644Z,61.15
2018-10-11T23:08:35.889Z,61.14
2018-10-11T23:11:04.724Z,61.80
2018-10-11T23:13:33.527Z,61.70
2018-10-11T23:16:02.568Z,62.27
2018-10-11T23:18:31.571Z,62.96
2018-10-11T23:21:00.221Z,63.86
2018-10-11T23:23:29.028Z,64.49
2018-10-11T23:25:57.750Z,64.85
2018-10-11T23:28:26.570Z,65.43
2018-10-11T23:30:55.614Z,65.15
2018-10-11T23:33:24.566Z,65.85
2018-10-11T23:35:53.505Z,65.86
2018-10-11T23:38:22.531Z,65.98
2018-10-11T23:40:51.699Z,66.42
2018-10-11T23:43:20.544Z,67.49
2018-10-11T23:45:49.486Z,68.34
2018-10-11T23:48:18.289Z,67.49
2018-10-11T23:50:47.528Z,67.73
2018-10-11T23:53:16.282Z,67.39
2018-10-11T23:55:45.009Z,67.99
2018-10-11T23:58:13.842Z,68.07
